createdAt,value
2022-10-28T00:01:05.274Z,13.80
2022-10-28T00:03:33.500Z,13.80
2022-10-28T00:06:05.340Z,13.80
2022-10-28T00:08:33.703Z,13.90
2022-10-28T00:11:06.791Z,13.90
2022-10-28T00:13:35.144Z,13.80
2022-10-28T00:16:09.930Z,13.80
2022-10-28T00:18:38.503Z,13.70
2022-10-28T00:21:08.440Z,13.60
2022-10-28T00:23:36.280Z,13.60
2022-10-28T00:26:09.254Z,13.50
2022-10-28T00:28:40.615Z,13.30
2022-10-28T00:31:11.514Z,13.20
2022-10-28T00:33:39.910Z,13.20
2022-10-28T00:36:13.115Z,13.10
2022-10-28T00:38:41.947Z,13.20
2022-10-28T00:41:10.961Z,13.20
2022-10-28T00:43:40.896Z,13.30
2022-10-28T00:46:17.403Z,13.20
2022-10-28T00:48:48.638Z,13.20
2022-10-28T00:51:18.818Z,13.20
2022-10-28T00:53:48.827Z,13.20
2022-10-28T00:56:18.503Z,13.30
2022-10-28T00:58:48.031Z,13.30
2022-10-28T01:01:17.305Z,13.30
2022-10-28T01:03:45.263Z,13.30
2022-10-28T01:06:13.539Z,13.20
2022-10-28T01:08:41.336Z,13.10
2022-10-28T01:11:46.391Z,13.10
2022-10-28T01:14:20.988Z,13.10
2022-10-28T01:17:06.138Z,13.00
2022-10-28T01:20:09.313Z,13.00
2022-10-28T01:22:43.463Z,13.10
2022-10-28T01:25:51.415Z,13.10
2022-10-28T01:28:47.288Z,13.10
2022-10-28T01:31:28.048Z,13.00
2022-10-28T01:34:07.820Z,13.00
2022-10-28T01:36:39.931Z,13.00
2022-10-28T01:39:16.342Z,13.00
2022-10-28T01:41:52.304Z,13.10
2022-10-28T01:44:28.084Z,13.00
2022-10-28T01:47:05.459Z,13.10
2022-10-28T01:49:39.446Z,13.10
2022-10-28T01:52:12.167Z,13.10
2022-10-28T01:54:43.863Z,13.00
2022-10-28T01:57:14.356Z,13.10
2022-10-28T01:59:42.751Z,13.00
2022-10-28T02:02:11.901Z,13.10
2022-10-28T02:04:39.719Z,13.20
2022-10-28T02:07:07.716Z,13.10
2022-10-28T02:09:48.376Z,13.20
2022-10-28T02:12:27.223Z,13.20
2022-10-28T02:15:12.380Z,13.10
2022-10-28T02:17:54.331Z,13.20
2022-10-28T02:20:33.958Z,13.20
2022-10-28T02:23:12.211Z,13.10
2022-10-28T02:25:44.380Z,13.20
2022-10-28T02:28:16.806Z,13.10
2022-10-28T02:30:49.416Z,13.10
2022-10-28T02:33:22.483Z,13.10
2022-10-28T02:35:55.559Z,13.10
2022-10-28T02:38:28.759Z,13.20
2022-10-28T02:41:02.773Z,13.10
2022-10-28T02:43:34.214Z,13.00
2022-10-28T02:46:04.437Z,13.00
2022-10-28T02:48:37.654Z,13.00
2022-10-28T02:51:09.831Z,13.00
2022-10-28T02:53:45.380Z,13.00
2022-10-28T02:56:16.707Z,12.90
2022-10-28T02:58:46.214Z,12.90
2022-10-28T03:01:14.263Z,12.90
2022-10-28T03:03:43.588Z,12.90
2022-10-28T03:06:11.459Z,12.90
2022-10-28T03:08:39.331Z,12.90
2022-10-28T03:11:07.296Z,12.90
2022-10-28T03:13:35.139Z,12.90
2022-10-28T03:16:02.939Z,12.90
2022-10-28T03:18:30.773Z,13.00
2022-10-28T03:20:59.925Z,13.00
2022-10-28T03:23:27.744Z,13.00
2022-10-28T03:25:55.543Z,13.00
2022-10-28T03:28:23.357Z,13.00
2022-10-28T03:30:51.209Z,13.00
2022-10-28T03:33:19.026Z,13.00
2022-10-28T03:35:46.832Z,12.90
2022-10-28T03:38:15.989Z,13.00
2022-10-28T03:40:43.927Z,13.00
2022-10-28T03:43:11.721Z,13.00
2022-10-28T03:45:39.556Z,13.00
2022-10-28T03:48:07.681Z,13.00
2022-10-28T03:50:35.651Z,13.20
2022-10-28T03:53:03.674Z,13.20
2022-10-28T03:55:32.865Z,13.30
2022-10-28T03:58:02.044Z,13.30
2022-10-28T04:00:29.909Z,13.30
2022-10-28T04:02:57.712Z,13.30
2022-10-28T04:05:25.589Z,13.30
2022-10-28T04:07:54.133Z,13.20
2022-10-28T04:10:22.045Z,13.20
2022-10-28T04:12:51.348Z,13.20
2022-10-28T04:15:19.313Z,13.10
2022-10-28T04:17:47.105Z,13.10
2022-10-28T04:20:14.913Z,13.10
2022-10-28T04:22:42.716Z,13.20
2022-10-28T04:25:11.161Z,13.30
2022-10-28T04:27:39.134Z,13.40
2022-10-28T04:30:10.263Z,13.40
2022-10-28T04:32:38.060Z,13.40
2022-10-28T04:35:06.695Z,13.40
2022-10-28T04:37:34.518Z,13.50
2022-10-28T04:40:02.730Z,13.50
2022-10-28T04:42:30.565Z,13.50
2022-10-28T04:44:58.596Z,13.60
2022-10-28T04:47:27.780Z,13.60
2022-10-28T04:49:55.613Z,13.70
2022-10-28T04:52:23.443Z,13.90
2022-10-28T04:54:51.266Z,14.00
2022-10-28T04:57:19.110Z,14.10
2022-10-28T04:59:46.907Z,14.10
2022-10-28T05:02:14.800Z,14.00
2022-10-28T05:04:44.088Z,14.10
2022-10-28T05:07:11.946Z,14.30
2022-10-28T05:09:39.789Z,14.20
2022-10-28T05:12:07.734Z,14.20
2022-10-28T05:14:35.711Z,14.10
2022-10-28T05:17:03.555Z,14.00
2022-10-28T05:19:31.516Z,13.90
2022-10-28T05:22:00.671Z,13.80
2022-10-28T05:24:28.536Z,13.80
2022-10-28T05:26:56.351Z,13.80
2022-10-28T05:29:26.947Z,13.70
2022-10-28T05:31:57.608Z,13.70
2022-10-28T05:34:25.470Z,13.70
2022-10-28T05:36:53.340Z,13.70
2022-10-28T05:39:22.542Z,13.80
2022-10-28T05:41:50.331Z,13.70
2022-10-28T05:44:18.149Z,13.70
2022-10-28T05:46:46.055Z,13.80
2022-10-28T05:49:13.874Z,13.80
2022-10-28T05:51:41.721Z,13.70
2022-10-28T05:54:09.585Z,13.70
2022-10-28T05:56:38.795Z,13.70
2022-10-28T05:59:06.676Z,13.70
2022-10-28T06:01:34.609Z,13.70
2022-10-28T06:04:02.492Z,13.70
2022-10-28T06:06:30.717Z,13.80
2022-10-28T06:08:58.587Z,13.90
2022-10-28T06:11:24.939Z,13.90
2022-10-28T06:13:54.072Z,13.90
2022-10-28T06:16:21.909Z,13.90
2022-10-28T06:18:49.707Z,13.90
2022-10-28T06:21:17.614Z,13.80
2022-10-28T06:23:46.704Z,13.90
2022-10-28T06:26:14.551Z,13.80
2022-10-28T06:28:42.386Z,13.80
2022-10-28T06:31:11.573Z,13.80
2022-10-28T06:33:39.393Z,13.80
2022-10-28T06:36:07.805Z,13.80
2022-10-28T06:38:35.719Z,13.80
2022-10-28T06:41:03.982Z,13.80
2022-10-28T06:43:31.827Z,13.70
2022-10-28T06:46:01.435Z,13.70
2022-10-28T06:48:32.201Z,13.70
2022-10-28T06:51:00.022Z,13.80
2022-10-28T06:53:27.888Z,13.80
2022-10-28T06:55:56.554Z,13.80
2022-10-28T06:58:24.784Z,13.80
2022-10-28T07:00:53.071Z,13.90
2022-10-28T07:03:21.646Z,13.90
2022-10-28T07:05:51.504Z,13.90
2022-10-28T07:08:19.603Z,13.90
2022-10-28T07:10:55.219Z,14.00
2022-10-28T07:13:23.139Z,14.00
2022-10-28T07:15:53.480Z,14.10
2022-10-28T07:18:21.658Z,14.20
2022-10-28T07:20:51.221Z,14.30
2022-10-28T07:23:19.957Z,14.30
2022-10-28T07:28:21.602Z,14.50
2022-10-28T07:30:49.914Z,14.60
2022-10-28T07:33:17.780Z,14.70
2022-10-28T07:35:45.661Z,14.80
2022-10-28T07:38:14.890Z,14.90
2022-10-28T07:40:42.731Z,15.10
2022-10-28T07:43:10.667Z,15.20
2022-10-28T07:45:39.084Z,15.20
2022-10-28T07:48:07.848Z,15.30
2022-10-28T07:50:35.811Z,15.30
2022-10-28T07:53:03.792Z,15.30
2022-10-28T07:55:32.992Z,15.40
2022-10-28T07:58:00.811Z,15.40
2022-10-28T08:00:28.655Z,15.40
2022-10-28T08:02:56.494Z,15.40
2022-10-28T08:05:24.323Z,15.40
2022-10-28T08:07:52.546Z,15.50
2022-10-28T08:10:20.661Z,15.60
2022-10-28T08:12:49.793Z,15.70
2022-10-28T08:15:18.414Z,15.80
2022-10-28T08:17:52.329Z,15.80
2022-10-28T08:20:20.428Z,15.90
2022-10-28T08:22:48.512Z,16.00
2022-10-28T08:25:16.536Z,16.10
2022-10-28T08:27:44.405Z,16.20
2022-10-28T08:30:14.098Z,16.30
2022-10-28T08:32:41.958Z,16.50
2022-10-28T08:35:10.416Z,16.60
2022-10-28T08:37:38.249Z,16.70
2022-10-28T08:40:07.454Z,16.90
2022-10-28T08:42:42.218Z,17.20
2022-10-28T08:45:26.536Z,17.30
2022-10-28T08:48:08.754Z,17.60
2022-10-28T08:50:45.926Z,18.00
2022-10-28T08:53:17.877Z,18.40
2022-10-28T08:55:48.921Z,18.70
2022-10-28T08:58:23.190Z,18.80
2022-10-28T09:00:55.224Z,19.00
2022-10-28T09:03:25.641Z,19.20
2022-10-28T09:06:01.808Z,19.50
2022-10-28T09:08:32.630Z,19.90
2022-10-28T09:11:31.478Z,20.30
2022-10-28T09:14:17.321Z,20.60
2022-10-28T09:16:49.324Z,20.80
2022-10-28T09:19:28.602Z,21.00
2022-10-28T09:22:08.066Z,21.20
2022-10-28T09:24:46.994Z,21.50
2022-10-28T09:27:24.115Z,21.60
2022-10-28T09:30:01.746Z,21.60
2022-10-28T09:32:42.557Z,21.50
2022-10-28T09:35:14.752Z,21.60
2022-10-28T09:37:46.795Z,21.70
2022-10-28T09:40:20.263Z,21.90
2022-10-28T09:42:56.348Z,21.90
2022-10-28T09:45:29.034Z,22.00
2022-10-28T09:48:02.375Z,22.30
2022-10-28T09:50:32.726Z,22.30
2022-10-28T09:53:07.295Z,22.30
2022-10-28T09:55:35.146Z,22.50
2022-10-28T09:58:04.574Z,22.50
2022-10-28T10:00:33.095Z,22.90
2022-10-28T10:03:02.371Z,23.20
2022-10-28T10:05:32.034Z,23.40
2022-10-28T10:08:02.645Z,23.90
2022-10-28T10:10:37.089Z,24.00
2022-10-28T10:13:07.936Z,23.90
2022-10-28T10:15:43.697Z,23.70
2022-10-28T10:18:18.265Z,23.80
2022-10-28T10:20:51.708Z,24.10
2022-10-28T10:23:29.973Z,24.30
2022-10-28T10:26:08.111Z,24.40
2022-10-28T10:28:44.172Z,24.60
2022-10-28T10:31:19.636Z,24.50
2022-10-28T10:33:52.861Z,24.30
2022-10-28T10:36:23.557Z,24.30
2022-10-28T10:38:54.068Z,24.10
2022-10-28T10:41:35.922Z,24.00
2022-10-28T10:44:24.491Z,23.80
2022-10-28T10:47:23.321Z,23.70
2022-10-28T10:49:52.036Z,23.60
2022-10-28T10:52:23.760Z,23.80
2022-10-28T10:55:00.728Z,24.40
2022-10-28T10:57:29.142Z,25.00
2022-10-28T10:59:58.343Z,25.30
2022-10-28T11:02:29.437Z,25.70
2022-10-28T11:05:00.272Z,25.90
2022-10-28T11:07:29.173Z,25.90
2022-10-28T11:09:57.122Z,25.60
2022-10-28T11:12:30.238Z,25.20
2022-10-28T11:14:59.832Z,24.90
2022-10-28T11:20:24.936Z,24.40
2022-10-28T11:23:03.668Z,24.20
2022-10-28T11:25:39.114Z,24.20
2022-10-28T11:28:33.375Z,24.40
2022-10-28T11:31:17.134Z,24.80
2022-10-28T11:33:54.118Z,24.80
2022-10-28T11:36:28.302Z,24.70
2022-10-28T11:39:20.760Z,24.60
2022-10-28T11:41:59.916Z,24.60
2022-10-28T11:47:26.800Z,24.60
2022-10-28T11:50:15.763Z,24.70
2022-10-28T11:52:58.628Z,24.80
2022-10-28T11:55:35.686Z,24.60
2022-10-28T12:01:01.584Z,24.40
2022-10-28T12:03:44.195Z,24.80
2022-10-28T12:06:21.324Z,25.00
2022-10-28T12:09:10.273Z,25.10
2022-10-28T12:14:32.781Z,25.20
2022-10-28T12:17:12.881Z,25.30
2022-10-28T12:19:46.785Z,25.50
2022-10-28T12:22:23.174Z,25.60
2022-10-28T12:24:53.186Z,25.50
2022-10-28T12:27:26.604Z,25.60
2022-10-28T12:29:59.754Z,25.70
2022-10-28T12:32:31.964Z,25.80
2022-10-28T12:35:03.957Z,26.00
2022-10-28T12:37:41.089Z,26.00
2022-10-28T12:40:18.043Z,26.00
2022-10-28T12:42:51.699Z,26.00
2022-10-28T12:45:22.242Z,25.90
2022-10-28T12:47:58.881Z,25.80
2022-10-28T12:50:33.268Z,25.80
2022-10-28T12:53:19.756Z,25.70
2022-10-28T12:55:51.459Z,25.40
2022-10-28T12:58:23.150Z,25.30
2022-10-28T13:00:55.431Z,25.20
2022-10-28T13:03:23.335Z,25.20
2022-10-28T13:06:00.739Z,25.20
2022-10-28T13:09:13.230Z,25.20
2022-10-28T13:12:15.849Z,25.10
2022-10-28T13:15:12.785Z,25.00
2022-10-28T13:17:52.198Z,24.90
2022-10-28T13:20:29.617Z,24.80
2022-10-28T13:23:17.285Z,24.90
2022-10-28T13:26:11.242Z,25.00
2022-10-28T13:28:47.230Z,25.00
2022-10-28T13:31:15.685Z,24.90
2022-10-28T13:33:52.226Z,24.80
2022-10-28T13:36:25.893Z,24.70
2022-10-28T13:38:56.730Z,24.60
2022-10-28T13:41:34.916Z,24.50
2022-10-28T13:44:47.365Z,24.40
2022-10-28T13:47:30.083Z,24.20
2022-10-28T13:50:34.068Z,24.10
2022-10-28T13:53:42.040Z,24.00
2022-10-28T13:56:36.369Z,24.00
2022-10-28T13:59:07.062Z,24.20
2022-10-28T14:02:07.373Z,24.10
2022-10-28T14:04:43.950Z,24.20
2022-10-28T14:07:22.303Z,24.00
2022-10-28T14:09:54.678Z,23.90
2022-10-28T14:12:28.858Z,23.80
2022-10-28T14:15:13.990Z,23.70
2022-10-28T14:17:49.445Z,23.60
2022-10-28T14:20:28.320Z,23.50
2022-10-28T14:22:56.336Z,23.40
2022-10-28T14:26:04.356Z,23.30
2022-10-28T14:28:53.101Z,23.30
2022-10-28T14:31:34.337Z,23.20
2022-10-28T14:34:41.508Z,23.20
2022-10-28T14:37:40.908Z,23.10
2022-10-28T14:40:37.317Z,23.00
2022-10-28T14:43:37.097Z,22.90
2022-10-28T14:46:24.284Z,22.80
2022-10-28T14:48:54.038Z,22.70
2022-10-28T14:51:24.554Z,22.60
2022-10-28T14:53:57.601Z,22.60
2022-10-28T14:56:27.867Z,22.40
2022-10-28T14:58:59.342Z,22.40
2022-10-28T15:01:29.976Z,22.60
2022-10-28T15:04:03.885Z,22.70
2022-10-28T15:06:37.241Z,22.80
2022-10-28T15:09:14.451Z,22.80
2022-10-28T15:11:45.467Z,22.70
2022-10-28T15:14:24.833Z,22.70
2022-10-28T15:16:52.680Z,22.60
2022-10-28T15:19:22.571Z,22.80
2022-10-28T15:22:04.920Z,22.90
2022-10-28T15:24:34.278Z,22.80
2022-10-28T15:27:02.137Z,22.70
2022-10-28T15:29:30.221Z,22.80
2022-10-28T15:32:11.346Z,23.00
2022-10-28T15:34:39.206Z,23.10
2022-10-28T15:37:07.741Z,23.10
2022-10-28T15:39:38.713Z,22.90
2022-10-28T15:42:31.527Z,22.90
2022-10-28T15:45:00.090Z,22.60
2022-10-28T15:47:33.229Z,22.40
2022-10-28T15:50:20.860Z,22.20
2022-10-28T15:52:50.084Z,22.20
2022-10-28T15:55:47.599Z,22.00
2022-10-28T15:58:36.948Z,21.90
2022-10-28T16:01:09.283Z,21.90
2022-10-28T16:03:45.585Z,21.90
2022-10-28T16:06:24.662Z,21.90
2022-10-28T16:09:07.556Z,21.70
2022-10-28T16:11:41.338Z,21.50
2022-10-28T16:14:29.320Z,21.40
2022-10-28T16:19:39.269Z,21.20
2022-10-28T16:22:07.704Z,21.20
2022-10-28T16:24:35.575Z,21.10
2022-10-28T16:27:19.399Z,21.00
2022-10-28T16:29:47.546Z,21.00
2022-10-28T16:32:17.067Z,21.00
2022-10-28T16:34:45.146Z,20.90
2022-10-28T16:37:21.811Z,20.80
2022-10-28T16:39:49.780Z,20.60
2022-10-28T16:42:20.413Z,20.60
2022-10-28T16:44:48.707Z,20.50
2022-10-28T16:47:18.246Z,20.40
2022-10-28T16:49:52.446Z,20.40
2022-10-28T16:52:26.007Z,20.30
2022-10-28T16:54:53.967Z,20.20
2022-10-28T16:59:56.456Z,20.10
2022-10-28T17:02:28.719Z,20.00
2022-10-28T17:04:57.106Z,19.90
2022-10-28T17:07:25.557Z,19.80
2022-10-28T17:09:53.607Z,19.80
2022-10-28T17:12:24.187Z,19.70
2022-10-28T17:14:52.481Z,19.60
2022-10-28T17:17:20.606Z,19.50
2022-10-28T17:19:48.468Z,19.40
2022-10-28T17:22:16.262Z,19.40
2022-10-28T17:24:44.108Z,19.30
2022-10-28T17:27:12.804Z,19.20
2022-10-28T17:29:42.166Z,19.10
2022-10-28T17:32:10.247Z,19.10
2022-10-28T17:34:38.318Z,19.20
2022-10-28T17:37:07.572Z,19.20
2022-10-28T17:39:35.512Z,19.10
2022-10-28T17:42:03.622Z,19.10
2022-10-28T17:44:31.529Z,19.00
2022-10-28T17:47:00.694Z,19.00
2022-10-28T17:49:28.515Z,19.10
2022-10-28T17:51:56.496Z,19.00
2022-10-28T17:56:57.056Z,19.00
2022-10-28T17:59:25.074Z,18.90
2022-10-28T18:01:54.349Z,18.70
2022-10-28T18:04:26.157Z,18.60
2022-10-28T18:06:55.236Z,18.60
2022-10-28T18:09:23.334Z,18.60
2022-10-28T18:11:51.628Z,18.50
2022-10-28T18:14:20.099Z,18.50
2022-10-28T18:16:50.111Z,18.40
2022-10-28T18:19:18.308Z,18.40
2022-10-28T18:21:47.653Z,18.30
2022-10-28T18:24:15.475Z,18.30
2022-10-28T18:26:43.304Z,18.40
2022-10-28T18:29:13.079Z,18.30
2022-10-28T18:31:43.894Z,18.30
2022-10-28T18:34:12.244Z,18.20
2022-10-28T18:36:40.114Z,18.20
2022-10-28T18:39:09.475Z,18.20
2022-10-28T18:41:41.763Z,18.20
2022-10-28T18:44:14.026Z,18.30
2022-10-28T18:46:42.023Z,18.30
2022-10-28T18:49:09.888Z,18.30
2022-10-28T18:51:37.804Z,18.30
2022-10-28T18:54:06.041Z,18.30
2022-10-28T18:56:35.216Z,18.20
2022-10-28T18:59:04.289Z,18.20
2022-10-28T19:01:33.316Z,18.00
2022-10-28T19:04:02.972Z,17.80
2022-10-28T19:06:33.280Z,17.70
2022-10-28T19:09:02.366Z,17.60
2022-10-28T19:11:31.961Z,17.60
2022-10-28T19:14:02.680Z,17.60
2022-10-28T19:16:33.267Z,17.40
2022-10-28T19:19:02.306Z,17.40
2022-10-28T19:21:30.711Z,17.60
2022-10-28T19:23:58.740Z,17.60
2022-10-28T19:26:27.819Z,17.60
2022-10-28T19:28:55.960Z,17.60
2022-10-28T19:31:27.210Z,17.60
2022-10-28T19:33:55.850Z,17.60
2022-10-28T19:36:25.017Z,17.60
2022-10-28T19:38:54.343Z,17.50
2022-10-28T19:41:23.611Z,17.50
2022-10-28T19:43:57.804Z,17.70
2022-10-28T19:46:29.203Z,17.70
2022-10-28T19:48:58.986Z,17.70
2022-10-28T19:51:28.807Z,17.60
2022-10-28T19:53:58.161Z,17.60
2022-10-28T19:56:26.674Z,17.60
2022-10-28T19:58:57.756Z,17.60
2022-10-28T20:01:28.939Z,17.60
2022-10-28T20:03:57.286Z,17.50
2022-10-28T20:06:28.644Z,17.20
2022-10-28T20:08:56.522Z,17.10
2022-10-28T20:11:26.627Z,16.90
2022-10-28T20:13:56.155Z,16.80
2022-10-28T20:16:25.359Z,16.70
2022-10-28T20:18:54.771Z,16.60
2022-10-28T20:21:23.975Z,16.50
2022-10-28T20:23:54.563Z,16.40
2022-10-28T20:26:23.862Z,16.30
2022-10-28T20:28:52.264Z,16.30
2022-10-28T20:31:22.296Z,16.20
2022-10-28T20:33:52.583Z,16.10
2022-10-28T20:36:26.825Z,16.00
2022-10-28T20:38:55.339Z,16.00
2022-10-28T20:41:23.750Z,16.00
2022-10-28T20:43:52.544Z,16.00
2022-10-28T20:46:20.861Z,16.00
2022-10-28T20:48:49.368Z,16.10
2022-10-28T20:51:17.787Z,16.20
2022-10-28T20:53:47.072Z,16.30
2022-10-28T20:56:19.941Z,16.40
2022-10-28T20:58:48.106Z,16.30
2022-10-28T21:01:18.218Z,16.40
2022-10-28T21:03:46.741Z,16.50
2022-10-28T21:06:16.037Z,16.70
2022-10-28T21:08:44.193Z,16.70
2022-10-28T21:11:15.647Z,16.60
2022-10-28T21:13:43.895Z,16.50
2022-10-28T21:16:13.040Z,16.40
2022-10-28T21:18:41.193Z,16.20
2022-10-28T21:21:09.410Z,16.10
2022-10-28T21:23:37.222Z,15.90
2022-10-28T21:26:07.189Z,15.80
2022-10-28T21:28:37.037Z,15.70
2022-10-28T21:31:07.012Z,15.60
2022-10-28T21:33:36.205Z,15.60
2022-10-28T21:36:06.868Z,15.50
2022-10-28T21:38:35.540Z,15.40
2022-10-28T21:41:06.237Z,15.30
2022-10-28T21:43:37.683Z,15.30
2022-10-28T21:46:05.852Z,15.30
2022-10-28T21:48:35.277Z,15.20
2022-10-28T21:51:08.545Z,15.20
2022-10-28T21:53:40.467Z,15.20
2022-10-28T21:56:13.814Z,15.20
2022-10-28T21:58:45.878Z,15.30
2022-10-28T22:01:15.567Z,15.20
2022-10-28T22:03:43.604Z,15.20
2022-10-28T22:06:11.898Z,15.10
2022-10-28T22:08:39.912Z,15.10
2022-10-28T22:11:10.889Z,15.30
2022-10-28T22:13:38.778Z,15.30
2022-10-28T22:16:11.197Z,15.50
2022-10-28T22:18:39.732Z,15.50
2022-10-28T22:21:09.039Z,15.60
2022-10-28T22:23:36.863Z,15.70
2022-10-28T22:26:06.013Z,15.70
2022-10-28T22:28:34.514Z,15.80
2022-10-28T22:31:03.200Z,15.80
2022-10-28T22:33:32.490Z,15.80
2022-10-28T22:36:01.614Z,15.80
2022-10-28T22:38:30.263Z,15.70
2022-10-28T22:41:05.229Z,15.80
2022-10-28T22:43:33.750Z,15.90
2022-10-28T22:46:02.190Z,16.20
2022-10-28T22:48:30.360Z,16.40
2022-10-28T22:51:00.308Z,16.60
2022-10-28T22:53:32.144Z,16.60
2022-10-28T22:56:00.192Z,16.50
2022-10-28T22:58:28.891Z,16.40
2022-10-28T23:01:06.361Z,16.30
2022-10-28T23:03:37.860Z,16.20
2022-10-28T23:06:07.600Z,16.20
2022-10-28T23:08:36.108Z,16.10
2022-10-28T23:11:04.323Z,16.00
2022-10-28T23:13:32.246Z,16.00
2022-10-28T23:16:03.946Z,15.90
2022-10-28T23:18:31.814Z,15.90
2022-10-28T23:21:06.566Z,15.90
2022-10-28T23:23:34.762Z,15.90
2022-10-28T23:26:02.876Z,15.80
2022-10-28T23:28:31.274Z,15.80
2022-10-28T23:31:01.682Z,15.80
2022-10-28T23:33:30.817Z,15.80
2022-10-28T23:35:59.693Z,15.80
2022-10-28T23:38:28.960Z,15.80
2022-10-28T23:40:58.368Z,15.70
2022-10-28T23:43:26.696Z,15.70
2022-10-28T23:45:54.701Z,16.00
2022-10-28T23:48:23.011Z,16.40
2022-10-28T23:50:51.536Z,16.40
2022-10-28T23:53:19.954Z,16.50
2022-10-28T23:55:50.408Z,16.50
2022-10-28T23:58:19.567Z,16.70
